Time;durP1;ratioP1;P1;durP2;ratioP2;P2;SDS_P1;SDS_P2;PMS_P1;PMS_P2;Temp;Humidity;BMP_temperature;BMP_pressure;BME280_temperature;BME280_humidity;BME280_pressure;Samples;Min_cycle;Max_cycle;Signal;HPM_P1;HPM_P2
2022/12/11 00:00:45;;;;;;;84.67;46.10;;;;;;;10.75;100.00;97455.41;5109916;28;20289;-62
2022/12/11 00:03:12;;;;;;;83.63;45.50;;;;;;;10.70;100.00;97486.00;5109509;28;20190;-62
2022/12/11 00:05:40;;;;;;;77.30;42.93;;;;;;;10.62;100.00;97477.00;5109455;28;20285;-61
2022/12/11 00:08:07;;;;;;;86.03;45.70;;;;;;;10.53;100.00;97448.13;5109421;28;20619;-62
2022/12/11 00:10:35;;;;;;;86.40;44.53;;;;;;;10.52;100.00;97487.94;5109779;28;20198;-63
2022/12/11 00:13:02;;;;;;;75.27;41.80;;;;;;;10.45;100.00;97421.84;5109646;28;20405;-61
2022/12/11 00:15:30;;;;;;;79.77;43.73;;;;;;;10.32;100.00;97423.50;5109835;28;20195;-61
2022/12/11 00:17:56;;;;;;;82.30;42.47;;;;;;;10.34;100.00;97407.84;5109497;28;20194;-69
2022/12/11 00:20:23;;;;;;;82.77;45.23;;;;;;;10.24;100.00;97383.44;5110088;28;20620;-70
2022/12/11 00:22:50;;;;;;;85.17;43.73;;;;;;;10.25;100.00;97395.47;5109494;28;20190;-69
2022/12/11 00:25:17;;;;;;;83.03;45.43;;;;;;;10.29;100.00;97371.00;5109652;28;20209;-70
2022/12/11 00:27:47;;;;;;;83.87;43.50;;;;;;;10.31;100.00;97382.94;5109725;28;20232;-69
2022/12/11 00:30:14;;;;;;;94.00;46.27;;;;;;;10.36;100.00;97380.09;5109465;28;20798;-69
2022/12/11 00:32:42;;;;;;;82.40;45.63;;;;;;;10.33;100.00;97403.59;5109499;28;20218;-68
2022/12/11 00:35:10;;;;;;;92.63;46.73;;;;;;;10.31;100.00;97397.66;5109675;28;20229;-70
2022/12/11 00:37:37;;;;;;;82.67;45.13;;;;;;;10.37;100.00;97384.34;5109606;28;20202;-69
2022/12/11 00:40:04;;;;;;;86.27;46.47;;;;;;;10.35;100.00;97381.00;5109074;28;20199;-70
2022/12/11 00:42:31;;;;;;;81.80;44.60;;;;;;;10.35;100.00;97406.94;5109695;28;20663;-70
2022/12/11 00:44:59;;;;;;;92.00;46.83;;;;;;;10.36;100.00;97418.97;5109269;28;20209;-69
2022/12/11 00:47:26;;;;;;;85.97;45.03;;;;;;;10.37;100.00;97410.28;5109828;28;20203;-69
2022/12/11 00:49:53;;;;;;;79.20;42.90;;;;;;;10.19;100.00;97420.81;5109343;28;20194;-61
2022/12/11 00:52:20;;;;;;;77.40;41.03;;;;;;;10.36;100.00;97426.75;5109466;28;20681;-62
2022/12/11 00:54:47;;;;;;;86.40;43.83;;;;;;;10.37;100.00;97386.94;5109525;28;20671;-61
2022/12/11 00:57:14;;;;;;;73.90;41.83;;;;;;;10.47;100.00;97388.03;5109234;28;20203;-62
2022/12/11 00:59:41;;;;;;;79.20;40.43;;;;;;;10.54;100.00;97404.88;5109424;28;20190;-62
2022/12/11 01:02:09;;;;;;;76.67;41.07;;;;;;;10.54;100.00;97376.34;5109568;28;20864;-70
2022/12/11 01:04:36;;;;;;;67.63;38.57;;;;;;;10.60;100.00;97370.78;5109470;28;20213;-69
2022/12/11 01:07:03;;;;;;;74.03;38.83;;;;;;;10.68;100.00;97370.28;5109585;28;20635;-70
2022/12/11 01:12:15;;;;;;;67.03;37.10;;;;;;;10.78;100.00;97335.88;5109151;28;20756;-62
2022/12/11 01:14:41;;;;;;;68.30;38.30;;;;;;;10.74;100.00;97324.00;5109259;28;20281;-62
2022/12/11 01:17:10;;;;;;;63.90;35.87;;;;;;;10.82;100.00;97333.91;5109070;28;20197;-63
2022/12/11 01:19:37;;;;;;;67.37;36.97;;;;;;;10.75;100.00;97341.25;5109319;28;20207;-62
2022/12/11 01:22:04;;;;;;;64.70;36.07;;;;;;;10.68;100.00;97334.81;5109314;28;20205;-62
2022/12/11 01:24:31;;;;;;;65.63;34.63;;;;;;;10.78;100.00;97337.63;5109854;28;20278;-61
2022/12/11 01:26:58;;;;;;;60.70;34.30;;;;;;;10.89;100.00;97345.56;5112947;28;20685;-70
2022/12/11 01:29:25;;;;;;;63.83;35.33;;;;;;;10.83;100.00;97325.22;5112761;28;20217;-70
2022/12/11 01:31:52;;;;;;;68.23;35.50;;;;;;;10.89;100.00;97325.63;5112617;28;20305;-71
2022/12/11 01:34:20;;;;;;;67.17;34.97;;;;;;;10.91;100.00;97323.78;5112744;28;20198;-62
2022/12/11 01:36:47;;;;;;;62.23;34.23;;;;;;;10.95;100.00;97313.19;5112513;28;20552;-62
2022/12/11 01:39:14;;;;;;;57.77;33.00;;;;;;;11.02;100.00;97336.06;5112571;28;20207;-62
2022/12/11 01:41:41;;;;;;;60.17;33.87;;;;;;;11.02;100.00;97325.66;5112751;28;20688;-70
2022/12/11 01:44:46;;;;;;;55.20;33.33;;;;;;;11.09;100.00;97300.13;5112179;28;20286;-70
2022/12/11 01:47:13;;;;;;;57.67;32.57;;;;;;;10.95;100.00;97264.69;5111458;28;20550;-70
2022/12/11 01:49:42;;;;;;;60.13;31.73;;;;;;;11.06;100.00;97259.63;5092199;28;20257;-70
2022/12/11 01:52:15;;;;;;;54.10;31.97;;;;;;;11.10;100.00;97208.34;5092025;28;20418;-69
2022/12/11 01:54:43;;;;;;;55.13;32.57;;;;;;;11.06;100.00;97207.72;5091912;28;20694;-69
2022/12/11 01:57:13;;;;;;;64.57;33.07;;;;;;;11.00;100.00;97189.97;5091962;28;20593;-69
2022/12/11 01:59:44;;;;;;;60.67;33.40;;;;;;;11.00;100.00;97213.31;5092047;28;20191;-69
2022/12/11 02:02:18;;;;;;;56.07;32.53;;;;;;;10.93;100.00;97193.09;5091785;28;20214;-70
2022/12/11 02:04:48;;;;;;;56.83;33.37;;;;;;;10.81;100.00;97213.72;5091920;28;20972;-69
2022/12/11 02:07:15;;;;;;;60.60;33.30;;;;;;;10.77;100.00;97217.44;5091782;28;20602;-69
2022/12/11 02:09:45;;;;;;;59.77;32.23;;;;;;;10.82;100.00;97256.06;5091709;28;20632;-62
2022/12/11 02:12:22;;;;;;;60.53;33.97;;;;;;;10.82;100.00;97235.31;5091448;28;20219;-69
2022/12/11 02:14:56;;;;;;;60.27;34.20;;;;;;;10.87;100.00;97213.31;5091478;28;20826;-69
2022/12/11 02:17:31;;;;;;;60.67;32.97;;;;;;;10.78;100.00;97195.78;5091466;28;20199;-69
2022/12/11 02:20:06;;;;;;;64.77;32.80;;;;;;;10.83;100.00;97219.66;5090970;28;20235;-70
2022/12/11 02:22:53;;;;;;;55.03;31.87;;;;;;;10.90;100.00;97223.50;5091271;28;20203;-62
2022/12/11 02:25:25;;;;;;;52.00;29.27;;;;;;;10.96;100.00;97205.84;5091161;28;20278;-61
2022/12/11 02:27:57;;;;;;;58.97;30.97;;;;;;;11.01;100.00;97214.16;5090625;28;20199;-62
2022/12/11 02:30:25;;;;;;;54.93;30.90;;;;;;;11.08;100.00;97207.59;5091514;28;20248;-63
2022/12/11 02:32:56;;;;;;;52.33;28.63;;;;;;;11.13;100.00;97208.16;5090728;28;20220;-61
2022/12/11 02:35:26;;;;;;;49.03;26.50;;;;;;;11.19;100.00;97208.53;5109020;28;20199;-62
2022/12/11 02:37:57;;;;;;;45.20;28.00;;;;;;;11.28;100.00;97214.91;5110882;28;20244;-62
2022/12/11 02:40:28;;;;;;;50.03;26.97;;;;;;;11.30;100.00;97205.22;5111463;28;20199;-63
2022/12/11 02:42:58;;;;;;;49.03;26.27;;;;;;;11.36;100.00;97199.63;5111225;28;20638;-70
2022/12/11 02:45:28;;;;;;;50.57;27.33;;;;;;;11.38;100.00;97182.16;5111301;28;20186;-69
2022/12/11 02:47:57;;;;;;;51.77;23.93;;;;;;;11.56;100.00;97186.06;5111006;28;20214;-69
2022/12/11 02:50:26;;;;;;;45.63;24.37;;;;;;;11.65;100.00;97185.44;5111357;28;20290;-69
2022/12/11 02:52:56;;;;;;;45.23;24.83;;;;;;;11.60;100.00;97158.13;5110978;27;20222;-70
2022/12/11 02:55:26;;;;;;;39.80;23.83;;;;;;;11.63;100.00;97179.50;5111353;28;20494;-70
2022/12/11 02:58:00;;;;;;;47.00;25.53;;;;;;;11.59;100.00;97162.50;5110934;28;20190;-70
2022/12/11 03:00:28;;;;;;;43.27;23.93;;;;;;;11.55;100.00;97174.03;5111248;28;20295;-69
2022/12/11 03:02:55;;;;;;;39.27;23.57;;;;;;;11.56;100.00;97182.66;5111016;28;20198;-70
2022/12/11 03:05:22;;;;;;;47.70;24.73;;;;;;;11.64;100.00;97182.94;5110891;28;20212;-70
2022/12/11 03:07:49;;;;;;;45.03;24.97;;;;;;;11.61;100.00;97199.59;5110807;28;20225;-67
2022/12/11 03:10:18;;;;;;;46.00;24.63;;;;;;;11.61;100.00;97211.75;5111216;28;20234;-63
2022/12/11 03:12:48;;;;;;;40.80;26.00;;;;;;;11.61;100.00;97196.16;5110863;28;20267;-63
2022/12/11 03:15:18;;;;;;;50.80;28.33;;;;;;;11.46;100.00;97164.28;5110901;28;20587;-63
2022/12/11 03:17:57;;;;;;;51.53;30.23;;;;;;;11.56;100.00;97186.06;5110703;28;20195;-63
2022/12/11 03:20:33;;;;;;;58.30;30.17;;;;;;;11.55;100.00;97179.22;5110451;28;20721;-62
2022/12/11 03:23:08;;;;;;;48.53;28.33;;;;;;;11.55;100.00;97180.97;5110487;27;20190;-62
2022/12/11 03:25:42;;;;;;;57.60;27.33;;;;;;;11.71;100.00;97212.75;5110667;28;20209;-62
2022/12/11 03:28:12;;;;;;;42.80;24.87;;;;;;;11.80;100.00;97219.09;5110369;28;20190;-68
2022/12/11 03:30:42;;;;;;;44.50;25.77;;;;;;;11.81;100.00;97225.97;5110588;28;20204;-70
2022/12/11 03:33:15;;;;;;;45.50;23.40;;;;;;;11.92;100.00;97218.25;5110256;28;20317;-70
2022/12/11 03:35:45;;;;;;;45.57;24.10;;;;;;;11.98;100.00;97217.78;5110830;28;20550;-64
2022/12/11 03:38:18;;;;;;;45.53;22.33;;;;;;;12.10;100.00;97205.69;5110471;28;20582;-68
2022/12/11 03:40:48;;;;;;;33.23;15.40;;;;;;;12.32;100.00;97205.81;5110217;28;20194;-69
2022/12/11 03:43:17;;;;;;;44.17;20.20;;;;;;;12.31;100.00;97214.53;5110103;27;20199;-63
2022/12/11 03:45:47;;;;;;;43.53;22.87;;;;;;;12.41;100.00;97227.75;5109948;27;20191;-62
2022/12/11 03:48:17;;;;;;;44.67;23.17;;;;;;;12.40;100.00;97226.09;5109310;28;20206;-62
2022/12/11 03:50:46;;;;;;;40.47;21.50;;;;;;;12.40;100.00;97224.31;5110128;28;20191;-62
2022/12/11 03:53:15;;;;;;;40.10;21.80;;;;;;;12.38;100.00;97209.75;5109971;28;20312;-62
2022/12/11 03:55:42;;;;;;;43.50;22.13;;;;;;;12.32;100.00;97193.63;5100141;28;20292;-63
2022/12/11 03:58:09;;;;;;;38.37;21.57;;;;;;;12.36;100.00;97202.88;5101979;28;20239;-63
2022/12/11 04:00:37;;;;;;;43.07;22.07;;;;;;;12.22;100.00;97202.22;5101756;28;20724;-63
2022/12/11 04:03:13;;;;;;;41.17;21.23;;;;;;;12.12;100.00;97209.84;5106785;28;20585;-62
2022/12/11 04:05:42;;;;;;;38.73;21.07;;;;;;;12.01;100.00;97209.78;5108859;28;20204;-63
2022/12/11 04:08:09;;;;;;;44.57;21.33;;;;;;;11.95;100.00;97223.22;5102245;28;20627;-63
2022/12/11 04:10:36;;;;;;;49.27;22.53;;;;;;;11.90;100.00;97209.72;5102383;28;20227;-62
2022/12/11 04:13:03;;;;;;;42.53;20.93;;;;;;;11.91;100.00;97211.38;5104028;28;20226;-69
2022/12/11 04:15:29;;;;;;;37.30;21.10;;;;;;;11.93;100.00;97214.72;5106477;28;20194;-69
2022/12/11 04:26:12;;;;;;;44.53;20.93;;;;;;;11.84;100.00;97225.75;5100915;28;20246;-62
2022/12/11 04:28:40;;;;;;;43.73;21.50;;;;;;;11.87;100.00;97210.75;5108516;28;20195;-63
2022/12/11 04:31:10;;;;;;;37.53;19.93;;;;;;;11.82;100.00;97206.84;5108569;28;20202;-69
2022/12/11 04:33:37;;;;;;;32.40;19.40;;;;;;;11.80;100.00;97203.50;5108638;28;20222;-69
2022/12/11 04:36:06;;;;;;;36.50;19.43;;;;;;;11.78;100.00;97221.81;5108347;28;20205;-69
2022/12/11 04:38:33;;;;;;;32.90;17.87;;;;;;;11.80;100.00;97219.09;5108788;28;20208;-69
2022/12/11 04:41:01;;;;;;;31.77;17.20;;;;;;;11.80;100.00;97225.13;5108486;28;20191;-69
2022/12/11 04:43:28;;;;;;;32.97;16.83;;;;;;;11.83;100.00;97226.69;5108227;28;20191;-70
2022/12/11 04:46:01;;;;;;;23.87;14.77;;;;;;;11.86;100.00;97224.69;5107280;28;20193;-70
2022/12/11 04:48:28;;;;;;;30.30;15.27;;;;;;;11.93;100.00;97228.53;5107911;28;20191;-70
2022/12/11 04:50:55;;;;;;;23.60;14.27;;;;;;;12.02;100.00;97234.00;5108412;28;20195;-70
2022/12/11 04:53:24;;;;;;;21.97;14.03;;;;;;;12.06;100.00;97246.69;5108545;28;20219;-63
2022/12/11 04:55:50;;;;;;;21.97;13.60;;;;;;;12.10;100.00;97229.94;5108529;28;20690;-63
2022/12/11 04:58:17;;;;;;;19.73;12.10;;;;;;;12.15;100.00;97222.63;5108124;28;20586;-63
2022/12/11 05:00:44;;;;;;;18.33;11.80;;;;;;;12.24;100.00;97231.53;5110588;28;20198;-69
2022/12/11 05:03:11;;;;;;;18.17;11.27;;;;;;;12.31;100.00;97230.97;5112270;27;20658;-68
2022/12/11 05:05:38;;;;;;;16.20;10.67;;;;;;;12.36;100.00;97238.47;5112587;28;20194;-70
2022/12/11 05:08:05;;;;;;;14.20;10.70;;;;;;;12.41;100.00;97243.34;5112338;28;20582;-69
2022/12/11 05:10:34;;;;;;;18.40;11.27;;;;;;;12.41;100.00;97256.34;5112496;28;20692;-69
2022/12/11 05:13:01;;;;;;;20.40;12.13;;;;;;;12.51;100.00;97257.34;5112093;28;20218;-68
2022/12/11 05:15:28;;;;;;;24.90;12.30;;;;;;;12.48;100.00;97261.00;5112201;28;20202;-68
2022/12/11 05:17:55;;;;;;;21.37;12.50;;;;;;;12.49;100.00;97267.03;5111935;28;20211;-68
2022/12/11 05:20:22;;;;;;;18.80;13.07;;;;;;;12.47;100.00;97267.13;5111789;27;20229;-68
2022/12/11 05:22:49;;;;;;;16.30;12.27;;;;;;;12.25;100.00;97277.41;5112197;27;20195;-69
2022/12/11 05:25:15;;;;;;;33.73;20.47;;;;;;;12.31;100.00;97257.00;5112279;28;20203;-69
2022/12/11 05:27:45;;;;;;;26.33;17.73;;;;;;;12.14;100.00;97259.16;5112106;28;20198;-69
2022/12/11 05:30:12;;;;;;;33.33;19.57;;;;;;;12.14;100.00;97254.78;5112243;28;20201;-70
2022/12/11 05:32:39;;;;;;;33.43;19.87;;;;;;;12.02;100.00;97260.84;5111586;28;20194;-70
2022/12/11 05:35:07;;;;;;;31.60;20.20;;;;;;;11.98;100.00;97277.59;5111982;28;20199;-69
2022/12/11 05:37:34;;;;;;;30.23;18.70;;;;;;;11.99;100.00;97292.25;5111738;28;20205;-70
2022/12/11 05:40:01;;;;;;;27.63;18.80;;;;;;;11.88;100.00;97297.38;5111772;28;20198;-70
2022/12/11 05:42:28;;;;;;;29.50;18.97;;;;;;;11.88;100.00;97297.38;5111770;28;20209;-69
2022/12/11 05:44:56;;;;;;;28.80;18.80;;;;;;;11.67;100.00;97296.22;5111291;28;20205;-69
2022/12/11 05:47:24;;;;;;;35.20;19.60;;;;;;;11.56;100.00;97283.97;5111802;28;20667;-68
2022/12/11 05:49:51;;;;;;;34.70;18.60;;;;;;;11.57;100.00;97283.84;5111484;28;20231;-70
2022/12/11 05:52:18;;;;;;;33.70;18.73;;;;;;;11.69;100.00;97291.75;5111424;28;20194;-68
2022/12/11 05:54:45;;;;;;;35.57;19.50;;;;;;;11.87;100.00;97287.91;5111905;28;20218;-69
2022/12/11 05:57:12;;;;;;;34.77;19.17;;;;;;;12.01;100.00;97303.38;5111272;28;20190;-69
2022/12/11 05:59:39;;;;;;;35.60;19.30;;;;;;;11.78;100.00;97286.78;5111305;28;20198;-63
2022/12/11 06:02:07;;;;;;;32.57;20.13;;;;;;;11.71;100.00;97318.47;5111043;28;20238;-63
2022/12/11 06:04:34;;;;;;;37.00;21.87;;;;;;;11.71;100.00;97336.66;5111495;28;20191;-69
2022/12/11 06:07:01;;;;;;;39.63;22.83;;;;;;;11.71;100.00;97342.69;5107635;28;20732;-69
2022/12/11 06:09:28;;;;;;;40.33;23.00;;;;;;;11.76;100.00;97342.38;5110434;28;20275;-69
2022/12/11 06:11:55;;;;;;;35.00;21.57;;;;;;;11.78;100.00;97349.16;5110573;28;20218;-69
2022/12/11 06:14:22;;;;;;;42.73;24.60;;;;;;;11.74;100.00;97368.44;5109950;28;20241;-70
2022/12/11 06:16:48;;;;;;;42.87;23.73;;;;;;;11.65;100.00;97369.91;5110687;28;20681;-69
2022/12/11 06:19:18;;;;;;;40.27;24.40;;;;;;;11.55;100.00;97355.84;5110481;28;20232;-69
2022/12/11 06:21:47;;;;;;;42.43;25.27;;;;;;;11.58;100.00;97367.81;5110689;28;20295;-69
2022/12/11 06:24:14;;;;;;;44.27;25.90;;;;;;;11.67;100.00;97359.41;5110062;28;20228;-70
2022/12/11 06:26:41;;;;;;;43.57;25.03;;;;;;;11.72;100.00;97361.69;5111002;28;20222;-70
2022/12/11 06:29:08;;;;;;;47.97;25.27;;;;;;;11.70;100.00;97373.97;5110829;28;20720;-70
2022/12/11 06:31:35;;;;;;;38.33;24.17;;;;;;;11.79;100.00;97362.97;5108534;27;20221;-71
2022/12/11 06:34:02;;;;;;;47.57;26.00;;;;;;;11.80;100.00;97369.84;5108724;27;20222;-71
2022/12/11 06:36:30;;;;;;;37.10;23.73;;;;;;;11.86;100.00;97370.25;5109200;28;20215;-71
2022/12/11 06:38:57;;;;;;;39.20;23.77;;;;;;;11.91;100.00;97372.53;5108197;27;20226;-71
2022/12/11 06:41:24;;;;;;;37.57;22.17;;;;;;;11.97;100.00;97354.75;5105045;28;20206;-70
2022/12/11 06:43:51;;;;;;;38.47;22.47;;;;;;;12.11;100.00;97359.00;5108537;28;20195;-61
2022/12/11 06:46:20;;;;;;;36.43;21.73;;;;;;;12.21;100.00;97360.00;5109495;28;20591;-61
2022/12/11 06:48:47;;;;;;;37.53;23.30;;;;;;;12.29;100.00;97357.72;5107462;28;20195;-71
2022/12/11 06:51:17;;;;;;;36.30;23.67;;;;;;;12.38;100.00;97365.81;5110376;28;20190;-70
2022/12/11 06:53:45;;;;;;;33.77;22.40;;;;;;;12.50;100.00;97381.41;5110796;27;20241;-69
2022/12/11 06:56:14;;;;;;;32.80;21.57;;;;;;;12.62;100.00;97374.50;5111158;28;20284;-69
2022/12/11 06:58:42;;;;;;;39.40;21.97;;;;;;;12.72;100.00;97378.94;5110894;28;20205;-69
2022/12/11 07:01:15;;;;;;;37.77;20.97;;;;;;;12.79;100.00;97381.91;5110274;28;20194;-69
2022/12/11 07:03:42;;;;;;;32.17;20.20;;;;;;;12.83;100.00;97385.97;5110067;28;20198;-69
2022/12/11 07:06:09;;;;;;;33.53;21.03;;;;;;;12.87;100.00;97384.78;5108676;28;20612;-69
2022/12/11 07:08:36;;;;;;;34.63;20.53;;;;;;;12.94;100.00;97383.44;5101385;28;20226;-70
2022/12/11 07:11:07;;;;;;;42.67;22.77;;;;;;;12.95;100.00;97382.50;5088751;28;20223;-70
2022/12/11 07:13:34;;;;;;;38.17;22.47;;;;;;;13.01;100.00;97389.84;5089655;28;20300;-69
2022/12/11 07:16:03;;;;;;;39.37;21.93;;;;;;;13.06;100.00;97394.75;5088630;28;20227;-69
2022/12/11 07:18:31;;;;;;;44.37;24.30;;;;;;;13.01;100.00;97402.88;5107861;28;20593;-70
2022/12/11 07:20:59;;;;;;;45.37;24.43;;;;;;;12.99;100.00;97393.50;5108472;28;20250;-70
2022/12/11 07:23:27;;;;;;;43.20;25.77;;;;;;;13.13;100.00;97390.72;5109384;28;20233;-69
2022/12/11 07:25:54;;;;;;;41.17;25.60;;;;;;;13.10;100.00;97391.78;5109527;28;20261;-70
2022/12/11 07:28:22;;;;;;;44.87;27.30;;;;;;;13.16;100.00;97385.34;5110099;28;20198;-70
2022/12/11 07:30:50;;;;;;;44.20;27.77;;;;;;;13.17;100.00;97387.00;5108469;28;20190;-70
2022/12/11 07:33:17;;;;;;;42.70;26.50;;;;;;;13.18;100.00;97395.66;5109848;28;20194;-69
2022/12/11 07:35:43;;;;;;;40.97;25.37;;;;;;;13.25;100.00;97391.66;5109911;28;20202;-70
2022/12/11 07:38:10;;;;;;;49.43;29.60;;;;;;;13.28;100.00;97388.81;5110011;28;20488;-69
2022/12/11 07:40:37;;;;;;;51.63;31.60;;;;;;;13.38;100.00;97400.22;5110245;28;20205;-69
2022/12/11 07:43:04;;;;;;;52.67;34.80;;;;;;;13.39;100.00;97418.34;5110188;28;20199;-69
2022/12/11 07:45:32;;;;;;;61.17;40.23;;;;;;;13.40;100.00;97413.97;5109338;28;20255;-69
2022/12/11 07:47:59;;;;;;;65.13;44.27;;;;;;;13.47;100.00;97386.50;5109325;28;20201;-69
2022/12/11 07:50:26;;;;;;;60.93;40.40;;;;;;;13.55;100.00;97388.53;5110304;28;20195;-69
2022/12/11 07:52:53;;;;;;;59.60;39.47;;;;;;;13.53;100.00;97387.84;5110166;28;20195;-59
2022/12/11 07:55:20;;;;;;;52.80;35.00;;;;;;;13.63;100.00;97407.06;5109906;28;20218;-59
2022/12/11 07:57:47;;;;;;;58.87;38.53;;;;;;;13.69;100.00;97407.41;5109923;28;20251;-59
2022/12/11 08:00:15;;;;;;;68.47;39.63;;;;;;;13.85;100.00;97394.06;5109806;28;20230;-60
2022/12/11 08:02:43;;;;;;;66.80;40.43;;;;;;;13.99;100.00;97396.47;5109722;28;20202;-59
2022/12/11 08:05:11;;;;;;;62.83;40.17;;;;;;;14.07;100.00;97403.69;5109753;28;20670;-60
2022/12/11 08:07:38;;;;;;;63.07;39.23;;;;;;;14.09;100.00;97402.66;5109792;28;20190;-60
2022/12/11 08:10:06;;;;;;;55.33;36.87;;;;;;;14.31;100.00;97421.88;5109726;28;20293;-60
2022/12/11 08:12:33;;;;;;;62.30;38.07;;;;;;;14.40;100.00;97432.44;5109526;28;20209;-60
2022/12/11 08:15:00;;;;;;;51.40;36.90;;;;;;;14.53;100.00;97445.38;5109416;28;20214;-61
2022/12/11 08:17:27;;;;;;;57.70;34.20;;;;;;;14.57;100.00;97438.13;5109879;28;20199;-69
2022/12/11 08:19:56;;;;;;;49.93;30.00;;;;;;;14.60;100.00;97436.13;5109644;28;20226;-69
2022/12/11 08:22:23;;;;;;;42.53;25.83;;;;;;;14.70;100.00;97429.22;5109776;28;20194;-69
2022/12/11 08:24:49;;;;;;;43.30;25.83;;;;;;;14.83;100.00;97429.09;5109710;28;20197;-70
2022/12/11 08:27:16;;;;;;;48.50;26.10;;;;;;;14.89;100.00;97424.22;5109549;28;20198;-70
2022/12/11 08:29:44;;;;;;;40.00;26.40;;;;;;;14.97;100.00;97413.16;5109265;28;20230;-69
2022/12/11 08:32:12;;;;;;;44.40;28.60;;;;;;;15.10;100.00;97403.38;5109712;28;20236;-69
2022/12/11 08:34:39;;;;;;;42.10;27.93;;;;;;;15.25;100.00;97404.72;5112541;28;20277;-68
2022/12/11 08:37:07;;;;;;;47.00;28.80;;;;;;;15.34;100.00;97400.56;5113803;28;20202;-68
2022/12/11 08:39:34;;;;;;;37.90;26.57;;;;;;;15.50;100.00;97394.91;5113689;28;20194;-70
2022/12/11 08:42:01;;;;;;;38.83;25.47;;;;;;;15.63;100.00;97395.56;5100034;27;20231;-60
2022/12/11 08:44:28;;;;;;;52.93;31.07;;;;;;;15.71;100.00;97387.91;5093305;28;20242;-61
2022/12/11 08:46:55;;;;;;;50.70;29.23;;;;;;;15.83;100.00;97399.97;5093044;28;20225;-60
2022/12/11 08:49:22;;;;;;;44.60;28.93;;;;;;;15.91;100.00;97399.34;5093084;28;20631;-60
2022/12/11 08:51:49;;;;;;;49.90;30.17;;;;;;;15.97;100.00;97388.34;5101637;28;20266;-60
2022/12/11 08:54:17;;;;;;;58.50;33.80;;;;;;;16.12;100.00;97399.31;5113101;28;20244;-70
2022/12/11 08:56:44;;;;;;;48.30;27.90;;;;;;;16.17;100.00;97418.06;5112750;28;20225;-69
2022/12/11 08:59:11;;;;;;;45.23;28.50;;;;;;;16.21;100.00;97436.00;5098660;27;20223;-67
2022/12/11 09:01:38;;;;;;;49.70;27.70;;;;;;;16.23;100.00;97444.56;5096839;28;20230;-70
2022/12/11 09:04:05;;;;;;;65.70;27.93;;;;;;;16.40;100.00;97455.38;5112886;28;20277;-67
2022/12/11 09:06:33;;;;;;;53.57;26.23;;;;;;;16.36;100.00;97456.63;5113255;28;20197;-61
2022/12/11 09:09:01;;;;;;;48.23;27.43;;;;;;;16.30;100.00;97457.94;5112354;27;20645;-61
2022/12/11 09:11:32;;;;;;;39.00;22.33;;;;;;;16.37;100.00;97445.16;5113001;28;20199;-71
2022/12/11 09:13:59;;;;;;;36.80;22.07;;;;;;;16.39;100.00;97446.69;5113220;27;20612;-70
2022/12/11 09:16:28;;;;;;;39.73;20.13;;;;;;;16.41;100.00;97446.56;5113098;28;20212;-61
2022/12/11 09:18:56;;;;;;;37.10;21.13;;;;;;;16.51;100.00;97434.34;5113175;28;20191;-62
2022/12/11 09:21:26;;;;;;;39.80;24.00;;;;;;;16.52;100.00;97428.13;5112623;28;20230;-61
2022/12/11 09:23:54;;;;;;;50.27;30.40;;;;;;;16.57;100.00;97418.94;5112136;28;20191;-62
2022/12/11 09:26:22;;;;;;;62.43;39.97;;;;;;;16.53;100.00;97393.97;5111362;28;20286;-62
2022/12/11 09:28:52;;;;;;;36.80;25.80;;;;;;;16.73;100.00;97410.59;5110823;28;20197;-62
2022/12/11 09:31:22;;;;;;;43.93;26.27;;;;;;;16.77;100.00;97400.69;5111643;28;20202;-61
2022/12/11 09:33:49;;;;;;;33.87;22.93;;;;;;;16.79;100.00;97404.84;5112318;28;20270;-63
2022/12/11 09:36:16;;;;;;;33.17;17.20;;;;;;;16.78;100.00;97394.50;5112115;28;20198;-61
2022/12/11 09:38:43;;;;;;;30.93;16.10;;;;;;;16.77;100.00;97390.22;5112604;28;20190;-61
2022/12/11 09:41:38;;;;;;;27.63;15.97;;;;;;;16.73;100.00;97379.16;5112679;28;20199;-62
2022/12/11 09:44:24;;;;;;;20.87;12.37;;;;;;;16.65;100.00;97358.91;5104937;28;20720;-63
2022/12/11 09:46:51;;;;;;;15.83;10.57;;;;;;;16.70;100.00;97351.44;5109645;28;20209;-59
2022/12/11 09:49:27;;;;;;;13.17;9.43;;;;;;;16.78;100.00;97352.56;5112045;28;20194;-59
2022/12/11 09:52:03;;;;;;;16.43;9.73;;;;;;;16.79;100.00;97356.84;5112438;28;20295;-59
2022/12/11 09:54:31;;;;;;;17.20;8.50;;;;;;;16.73;100.00;97344.28;5112322;28;20244;-59
2022/12/11 09:57:09;;;;;;;13.43;9.07;;;;;;;16.81;100.00;97357.56;5111993;28;20204;-59
2022/12/11 09:59:48;;;;;;;19.13;9.63;;;;;;;16.87;100.00;97362.25;5111798;28;20199;-63
2022/12/11 10:02:27;;;;;;;35.00;21.83;;;;;;;16.98;100.00;97362.13;5111979;28;20285;-63
2022/12/11 10:05:04;;;;;;;29.35;13.85;;;;;;;16.97;100.00;97361.28;5112130;28;20212;-63
2022/12/11 10:07:35;;;;;;;44.00;14.98;;;;;;;17.03;100.00;97359.94;5102000;28;20632;-63
2022/12/11 10:10:14;;;;;;;32.97;15.35;;;;;;;17.15;100.00;97364.06;5091152;28;20227;-63
2022/12/11 10:12:50;;;;;;;34.45;15.07;;;;;;;17.22;100.00;97349.44;5091333;28;20265;-64
2022/12/11 10:15:30;;;;;;;26.35;15.15;;;;;;;17.33;100.00;97351.91;5091203;28;20248;-63
2022/12/11 10:17:59;;;;;;;27.30;17.05;;;;;;;17.44;100.00;97356.19;5090631;28;20737;-62
2022/12/11 10:20:33;;;;;;;27.83;18.80;;;;;;;17.56;100.00;97355.06;5091170;28;20251;-63
2022/12/11 10:23:02;;;;;;;38.22;25.30;;;;;;;17.60;100.00;97332.03;5090826;28;20226;-63
2022/12/11 10:25:32;;;;;;;27.00;15.68;;;;;;;17.66;100.00;97331.47;5090455;28;20322;-63
2022/12/11 10:28:00;;;;;;;31.90;20.15;;;;;;;17.68;100.00;97326.91;5107858;28;20666;-63
2022/12/11 10:30:36;;;;;;;27.83;17.10;;;;;;;17.72;100.00;97325.66;5110826;28;20617;-63
2022/12/11 10:33:14;;;;;;;20.27;12.77;;;;;;;17.74;100.00;97319.28;5111458;28;20240;-62
2022/12/11 10:35:47;;;;;;;21.02;12.85;;;;;;;17.72;100.00;97315.97;5111323;28;20230;-62
2022/12/11 10:38:17;;;;;;;22.05;14.20;;;;;;;17.74;100.00;97300.09;5111068;27;20773;-62
2022/12/11 10:40:46;;;;;;;24.63;15.27;;;;;;;17.66;100.00;97284.25;5110261;28;20215;-63
2022/12/11 10:43:13;;;;;;;23.17;14.25;;;;;;;17.73;100.00;97269.59;5090412;28;20199;-62
2022/12/11 10:45:50;;;;;;;23.17;13.38;;;;;;;17.79;100.00;97279.53;5089444;28;20196;-61
2022/12/11 10:48:17;;;;;;;21.05;11.60;;;;;;;17.82;100.00;97268.75;5090638;28;20340;-62
2022/12/11 10:50:55;;;;;;;19.27;11.77;;;;;;;17.89;100.00;97272.44;5090667;28;20196;-63
2022/12/11 10:53:23;;;;;;;98.85;55.20;;;;;;;17.91;100.00;97278.38;5090551;28;20201;-63
2022/12/11 10:55:51;;;;;;;30.27;16.25;;;;;;;17.98;100.00;97279.44;5090756;28;20881;-64
2022/12/11 10:58:21;;;;;;;25.08;13.98;;;;;;;18.05;100.00;97269.22;5089644;28;20208;-64
2022/12/11 11:01:02;;;;;;;16.77;11.65;;;;;;;18.11;100.00;97274.69;5090584;28;20195;-64
2022/12/11 11:03:29;;;;;;;27.35;13.23;;;;;;;18.11;100.00;97276.50;5090556;28;20688;-65
2022/12/11 11:06:04;;;;;;;27.88;16.65;;;;;;;18.16;100.00;97278.69;5090407;28;20806;-61
2022/12/11 11:08:39;;;;;;;23.30;12.90;;;;;;;18.19;100.00;97291.50;5090399;28;20205;-61
2022/12/11 11:11:07;;;;;;;27.02;12.40;;;;;;;18.24;100.00;97289.28;5089857;28;20202;-62
2022/12/11 11:13:35;;;;;;;17.15;10.68;;;;;;;18.29;100.00;97287.03;5091082;28;20531;-63
2022/12/11 11:16:06;;;;;;;14.40;8.15;;;;;;;18.33;100.00;97289.22;5090157;28;20596;-63
2022/12/11 11:18:34;;;;;;;23.23;9.05;;;;;;;18.31;100.00;97288.53;5098257;28;20258;-63
2022/12/11 11:21:02;;;;;;;81.07;37.42;;;;;;;18.28;100.00;97290.66;5110330;28;20313;-62
2022/12/11 11:23:29;;;;;;;26.65;14.02;;;;;;;18.29;100.00;97281.78;5110532;28;20209;-61
2022/12/11 11:25:58;;;;;;;18.27;10.60;;;;;;;18.28;100.00;97288.84;5110624;28;20285;-61
2022/12/11 11:28:28;;;;;;;17.17;8.10;;;;;;;18.19;100.00;97281.81;5110422;28;20194;-61